Time;durP1;ratioP1;P1;durP2;ratioP2;P2;SDS_P1;SDS_P2;PMS_P1;PMS_P2;Temp;Humidity;BMP_temperature;BMP_pressure;BME280_temperature;BME280_humidity;BME280_pressure;Samples;Min_cycle;Max_cycle;Signal;HPM_P1;HPM_P2
2022/10/06 00:00:46;;;;;;;;;;;;;;;21.87;64.26;99810.28;2102115;28;19934;-52
2022/10/06 00:01:46;;;;;;;;;;;;;;;21.87;64.24;99812.97;2108185;28;20620;-50
2022/10/06 00:02:48;;;;;;;;;;;;;;;21.86;64.25;99805.88;2095973;28;19928;-50
2022/10/06 00:03:48;;;;;;;;;;;;;;;21.88;64.40;99813.81;2097099;28;19932;-50
2022/10/06 00:04:49;;;;;;;;;;;;;;;21.86;64.40;99805.88;2100197;28;20461;-51
2022/10/06 00:05:50;;;;;;;;;;;;;;;21.86;64.37;99808.59;2101178;28;19928;-49
2022/10/06 00:06:51;;;;;;;;;;;;;;;21.87;64.16;99807.59;2103998;28;19927;-49
2022/10/06 00:07:54;;;;;;;;;;;;;;;21.88;64.32;99816.50;2105305;28;20276;-49
2022/10/06 00:08:55;;;;;;;;;;;;;;;21.87;64.40;99818.38;2102598;27;19963;-49
2022/10/06 00:09:56;;;;;;;;;;;;;;;21.86;64.51;99816.69;2103787;28;20397;-50
2022/10/06 00:10:57;;;;;;;;;;;;;;;21.86;64.40;99814.81;2091477;28;19957;-52
2022/10/06 00:11:58;;;;;;;;;;;;;;;21.86;64.38;99812.13;2100173;28;20167;-52
2022/10/06 00:12:59;;;;;;;;;;;;;;;21.85;64.17;99815.88;2099551;28;19936;-51
2022/10/06 00:14:00;;;;;;;;;;;;;;;21.87;64.26;99810.28;2100918;28;20660;-48
2022/10/06 00:15:01;;;;;;;;;;;;;;;21.86;64.20;99812.13;2098254;28;20006;-50
2022/10/06 00:16:03;;;;;;;;;;;;;;;21.86;64.44;99805.88;2094789;28;20038;-51
2022/10/06 00:17:05;;;;;;;;;;;;;;;21.85;64.52;99810.47;2092891;28;20485;-53
2022/10/06 00:18:05;;;;;;;;;;;;;;;21.86;64.20;99805.88;2091610;28;20001;-51
2022/10/06 00:19:07;;;;;;;;;;;;;;;21.87;64.31;99815.69;2092676;28;19928;-53
2022/10/06 00:20:08;;;;;;;;;;;;;;;21.86;64.10;99817.53;2092917;28;20531;-54
2022/10/06 00:21:10;;;;;;;;;;;;;;;21.88;64.42;99811.13;2093954;28;19928;-53
2022/10/06 00:22:10;;;;;;;;;;;;;;;21.86;64.26;99816.69;2096252;28;19940;-52
2022/10/06 00:23:13;;;;;;;;;;;;;;;21.86;64.24;99820.22;2095454;28;20011;-50
2022/10/06 00:24:13;;;;;;;;;;;;;;;21.86;64.05;99809.41;2091926;28;19933;-51
2022/10/06 00:25:17;;;;;;;;;;;;;;;21.86;64.10;99819.41;2093320;28;19931;-51
2022/10/06 00:26:17;;;;;;;;;;;;;;;21.86;64.29;99806.72;2094398;28;20019;-52
2022/10/06 00:27:19;;;;;;;;;;;;;;;21.86;64.08;99814.81;2096052;28;19928;-51
2022/10/06 00:28:19;;;;;;;;;;;;;;;21.86;64.25;99811.28;2093499;28;20406;-53
2022/10/06 00:29:21;;;;;;;;;;;;;;;21.86;64.26;99816.69;2086472;28;19928;-52
2022/10/06 00:30:22;;;;;;;;;;;;;;;21.85;64.12;99813.16;2095698;28;19994;-51
2022/10/06 00:31:24;;;;;;;;;;;;;;;21.85;64.27;99815.88;2089605;28;20386;-52
2022/10/06 00:32:25;;;;;;;;;;;;;;;21.85;64.11;99818.56;2093753;28;20822;-52
2022/10/06 00:33:26;;;;;;;;;;;;;;;21.86;63.94;99816.69;2087948;28;19933;-51
2022/10/06 00:34:27;;;;;;;;;;;;;;;21.86;64.30;99822.09;2093440;28;19956;-51
2022/10/06 00:35:30;;;;;;;;;;;;;;;21.86;64.18;99819.41;2093068;28;19933;-49
2022/10/06 00:36:31;;;;;;;;;;;;;;;21.85;63.94;99815.88;2086571;28;19998;-49
2022/10/06 00:37:34;;;;;;;;;;;;;;;21.85;64.21;99818.56;2087693;28;20622;-52
2022/10/06 00:38:36;;;;;;;;;;;;;;;21.84;64.26;99816.03;2092965;28;19932;-50
2022/10/06 00:39:37;;;;;;;;;;;;;;;21.84;64.28;99816.91;2093790;28;20031;-53
2022/10/06 00:40:42;;;;;;;;;;;;;;;21.85;63.98;99820.44;2090956;28;19951;-51
2022/10/06 00:41:43;;;;;;;;;;;;;;;21.85;64.19;99812.34;2092910;28;19928;-50
2022/10/06 00:42:49;;;;;;;;;;;;;;;21.85;64.03;99821.28;2095933;28;19980;-54
2022/10/06 00:43:51;;;;;;;;;;;;;;;21.84;64.30;99816.91;2095138;28;21015;-53
2022/10/06 00:44:52;;;;;;;;;;;;;;;21.85;64.00;99820.44;2091689;28;20619;-52
2022/10/06 00:45:53;;;;;;;;;;;;;;;21.85;64.33;99817.75;2099155;28;19932;-48
2022/10/06 00:46:55;;;;;;;;;;;;;;;21.85;64.02;99815.03;2095945;28;19924;-49
2022/10/06 00:47:58;;;;;;;;;;;;;;;21.85;64.14;99815.03;2090584;28;20650;-51
2022/10/06 00:49:03;;;;;;;;;;;;;;;21.84;64.26;99814.22;2088549;28;19938;-49
2022/10/06 00:50:05;;;;;;;;;;;;;;;21.84;64.02;99814.22;2086257;28;19967;-53
2022/10/06 00:51:06;;;;;;;;;;;;;;;21.83;64.30;99812.53;2091681;28;19955;-51
2022/10/06 00:52:10;;;;;;;;;;;;;;;21.83;64.01;99809.81;2100630;27;19953;-50
2022/10/06 00:53:12;;;;;;;;;;;;;;;21.84;64.02;99816.03;2098702;27;19924;-52
2022/10/06 00:54:15;;;;;;;;;;;;;;;21.84;64.19;99818.75;2097881;27;19931;-53
2022/10/06 00:55:19;;;;;;;;;;;;;;;21.84;63.81;99816.91;2099825;27;19931;-52
2022/10/06 00:56:19;;;;;;;;;;;;;;;21.84;64.37;99816.03;2098873;27;20803;-51
2022/10/06 00:57:21;;;;;;;;;;;;;;;21.84;64.50;99813.34;2097876;27;19928;-54
2022/10/06 00:58:21;;;;;;;;;;;;;;;21.84;64.13;99818.75;2102791;27;19992;-50
2022/10/06 00:59:23;;;;;;;;;;;;;;;21.84;64.32;99818.75;2101709;27;19940;-50
2022/10/06 01:00:24;;;;;;;;;;;;;;;21.84;64.13;99822.31;2099138;27;20063;-52
2022/10/06 01:01:25;;;;;;;;;;;;;;;21.83;64.30;99815.22;2099122;27;19947;-52
2022/10/06 01:02:30;;;;;;;;;;;;;;;21.83;64.27;99806.28;2099120;27;20541;-49
2022/10/06 01:03:35;;;;;;;;;;;;;;;21.85;64.41;99815.03;2098097;27;19970;-48
2022/10/06 01:04:38;;;;;;;;;;;;;;;21.84;64.54;99807.94;2100484;27;19927;-51
2022/10/06 01:05:40;;;;;;;;;;;;;;;21.84;64.05;99807.94;2098760;27;19928;-51
2022/10/06 01:06:46;;;;;;;;;;;;;;;21.84;64.38;99807.94;2097706;27;20019;-52
2022/10/06 01:07:47;;;;;;;;;;;;;;;21.84;64.39;99807.94;2082655;27;19939;-50
2022/10/06 01:08:48;;;;;;;;;;;;;;;21.85;64.50;99806.94;2088664;28;19929;-51
2022/10/06 01:09:50;;;;;;;;;;;;;;;21.82;64.30;99810.03;2091557;28;19994;-52
2022/10/06 01:10:52;;;;;;;;;;;;;;;21.84;64.72;99802.53;2085657;28;19928;-51
2022/10/06 01:11:54;;;;;;;;;;;;;;;21.83;64.39;99800.88;2089183;27;19981;-48
2022/10/06 01:12:57;;;;;;;;;;;;;;;21.82;64.58;99799.22;2091338;27;20395;-51
2022/10/06 01:13:57;;;;;;;;;;;;;;;21.82;64.42;99799.22;2087189;27;20569;-48
2022/10/06 01:14:59;;;;;;;;;;;;;;;21.82;64.70;99800.06;2092224;27;19932;-51
2022/10/06 01:16:03;;;;;;;;;;;;;;;21.82;64.49;99804.63;2087289;27;19932;-52
2022/10/06 01:17:07;;;;;;;;;;;;;;;21.83;64.59;99799.00;2091926;28;20374;-51
2022/10/06 01:18:12;;;;;;;;;;;;;;;21.83;64.70;99803.59;2087704;28;19973;-53
2022/10/06 01:19:20;;;;;;;;;;;;;;;21.82;64.28;99799.22;2093615;28;19974;-49
2022/10/06 01:20:21;;;;;;;;;;;;;;;21.82;64.70;99805.47;2091389;28;19939;-49
2022/10/06 01:21:26;;;;;;;;;;;;;;;21.83;64.20;99796.31;2098743;28;19939;-48
2022/10/06 01:22:29;;;;;;;;;;;;;;;21.83;64.98;99801.72;2098099;28;19969;-47
2022/10/06 01:23:31;;;;;;;;;;;;;;;21.81;64.69;99803.81;2099904;28;19931;-49
2022/10/06 01:24:32;;;;;;;;;;;;;;;21.82;64.50;99801.94;2099248;28;20619;-48
2022/10/06 01:25:34;;;;;;;;;;;;;;;21.82;64.59;99799.22;2101800;28;20003;-47
2022/10/06 01:26:35;;;;;;;;;;;;;;;21.81;64.74;99795.69;2099055;28;20402;-49
2022/10/06 01:27:38;;;;;;;;;;;;;;;21.81;64.62;99795.69;2100918;28;20361;-50
2022/10/06 01:28:39;;;;;;;;;;;;;;;21.81;64.72;99787.59;2098060;28;20397;-47
2022/10/06 01:29:41;;;;;;;;;;;;;;;21.82;64.73;99791.13;2101982;28;19928;-48
2022/10/06 01:30:44;;;;;;;;;;;;;;;21.83;64.79;99787.38;2098031;27;19953;-53
2022/10/06 01:31:46;;;;;;;;;;;;;;;21.83;64.83;99792.78;2096164;28;20408;-52
2022/10/06 01:32:47;;;;;;;;;;;;;;;21.81;64.77;99782.19;2094483;27;19980;-50
2022/10/06 01:33:50;;;;;;;;;;;;;;;21.80;64.75;99783.22;2099328;28;19970;-51
2022/10/06 01:34:52;;;;;;;;;;;;;;;21.81;64.65;99784.91;2098694;28;20006;-52
2022/10/06 01:35:52;;;;;;;;;;;;;;;21.81;64.66;99784.03;2100465;28;22610;-51
2022/10/06 01:36:54;;;;;;;;;;;;;;;21.81;64.47;99781.34;2097553;28;19969;-55
2022/10/06 01:37:57;;;;;;;;;;;;;;;21.82;64.64;99783.03;2102228;28;19924;-51
2022/10/06 01:38:59;;;;;;;;;;;;;;;21.81;64.59;99786.72;2093606;28;19928;-55
2022/10/06 01:39:59;;;;;;;;;;;;;;;21.81;64.81;99792.13;2099998;28;20414;-53
2022/10/06 01:41:01;;;;;;;;;;;;;;;21.81;64.56;99790.28;2097009;28;19985;-51
2022/10/06 01:42:02;;;;;;;;;;;;;;;21.81;64.75;99784.91;2100558;28;19939;-54
2022/10/06 01:43:03;;;;;;;;;;;;;;;21.81;64.92;99776.78;2096826;28;20019;-53
2022/10/06 01:44:03;;;;;;;;;;;;;;;21.80;64.92;99779.69;2104006;28;19936;-53
2022/10/06 01:45:05;;;;;;;;;;;;;;;21.81;64.76;99775.94;2099190;28;19940;-48
2022/10/06 01:46:06;;;;;;;;;;;;;;;21.81;64.49;99776.78;2098598;28;19924;-51
2022/10/06 01:47:08;;;;;;;;;;;;;;;21.82;64.71;99774.91;2087975;28;19928;-50
2022/10/06 01:48:08;;;;;;;;;;;;;;;21.81;64.56;99775.94;2092412;28;19939;-53
2022/10/06 01:49:10;;;;;;;;;;;;;;;21.83;64.66;99781.97;2098269;27;19930;-48
2022/10/06 01:50:10;;;;;;;;;;;;;;;21.81;64.65;99775.94;2100126;28;19928;-53
2022/10/06 01:51:13;;;;;;;;;;;;;;;21.81;64.90;99774.09;2095220;28;20010;-52
2022/10/06 01:52:14;;;;;;;;;;;;;;;21.80;64.60;99774.28;2103029;28;20297;-54
2022/10/06 01:53:17;;;;;;;;;;;;;;;21.81;64.79;99770.53;2091140;28;20027;-56
2022/10/06 01:54:17;;;;;;;;;;;;;;;21.81;64.97;99770.53;2097393;28;19948;-53
2022/10/06 01:55:19;;;;;;;;;;;;;;;21.80;64.80;99767.00;2101665;28;19928;-50
2022/10/06 01:56:20;;;;;;;;;;;;;;;21.80;64.31;99767.00;2100188;28;19928;-52
2022/10/06 01:57:21;;;;;;;;;;;;;;;21.81;64.72;99763.28;2095704;28;20015;-50
2022/10/06 01:58:22;;;;;;;;;;;;;;;21.80;64.36;99761.59;2100877;28;19931;-50
2022/10/06 01:59:24;;;;;;;;;;;;;;;21.80;64.93;99758.06;2094207;28;20045;-56
2022/10/06 02:00:25;;;;;;;;;;;;;;;21.79;64.36;99757.25;2099448;28;19939;-56
2022/10/06 02:01:26;;;;;;;;;;;;;;;21.80;64.60;99755.38;2098509;28;20014;-52
2022/10/06 02:02:29;;;;;;;;;;;;;;;21.81;64.64;99759.72;2094323;28;22099;-51
2022/10/06 02:03:30;;;;;;;;;;;;;;;21.79;64.61;99759.94;2099806;28;20371;-52
2022/10/06 02:04:31;;;;;;;;;;;;;;;21.80;64.50;99758.91;2100195;28;19924;-55
2022/10/06 02:05:32;;;;;;;;;;;;;;;21.80;64.41;99758.06;2100560;28;19935;-53
2022/10/06 02:06:33;;;;;;;;;;;;;;;21.78;64.70;99750.16;2099632;28;20443;-54
2022/10/06 02:07:35;;;;;;;;;;;;;;;21.78;64.61;99749.31;2099913;28;20035;-53
2022/10/06 02:08:37;;;;;;;;;;;;;;;21.79;64.63;99751.84;2097646;28;19969;-51
2022/10/06 02:09:38;;;;;;;;;;;;;;;21.80;64.45;99755.38;2101808;28;20034;-56
2022/10/06 02:10:39;;;;;;;;;;;;;;;21.79;64.54;99748.31;2097199;28;19928;-52
2022/10/06 02:11:40;;;;;;;;;;;;;;;21.79;64.31;99753.72;2090105;28;20539;-54
2022/10/06 02:12:41;;;;;;;;;;;;;;;21.79;64.68;99751.84;2090713;28;19939;-48
2022/10/06 02:13:42;;;;;;;;;;;;;;;21.80;64.67;99747.28;2089197;28;20039;-54
2022/10/06 02:14:43;;;;;;;;;;;;;;;21.79;64.53;99746.44;2091282;28;19939;-54
2022/10/06 02:15:44;;;;;;;;;;;;;;;21.80;64.64;99748.09;2101224;28;19952;-53
2022/10/06 02:16:45;;;;;;;;;;;;;;;21.79;64.92;99748.31;2095355;28;20332;-48
2022/10/06 02:17:46;;;;;;;;;;;;;;;21.78;64.88;99747.44;2100651;28;19924;-53
2022/10/06 02:18:47;;;;;;;;;;;;;;;21.79;64.56;99751.00;2099788;28;19924;-51
2022/10/06 02:19:48;;;;;;;;;;;;;;;21.78;64.99;99739.34;2100401;28;20576;-52
2022/10/06 02:20:49;;;;;;;;;;;;;;;21.78;64.83;99746.63;2105273;28;19939;-55
2022/10/06 02:21:50;;;;;;;;;;;;;;;21.77;64.67;99745.78;2105682;28;20468;-55
2022/10/06 02:22:51;;;;;;;;;;;;;;;21.78;64.91;99746.63;2102686;28;19935;-52
2022/10/06 02:23:54;;;;;;;;;;;;;;;21.77;64.83;99748.50;2101705;28;19928;-54
2022/10/06 02:24:54;;;;;;;;;;;;;;;21.78;64.53;99746.63;2105831;28;19927;-49
2022/10/06 02:25:59;;;;;;;;;;;;;;;21.77;64.59;99744.97;2101020;28;19924;-55
2022/10/06 02:26:59;;;;;;;;;;;;;;;21.76;64.51;99741.44;2101011;28;19924;-51
2022/10/06 02:28:01;;;;;;;;;;;;;;;21.77;64.87;99750.38;2101247;28;20015;-53
2022/10/06 02:29:01;;;;;;;;;;;;;;;21.76;64.66;99744.13;2101519;28;20370;-53
2022/10/06 02:30:04;;;;;;;;;;;;;;;21.77;64.73;99747.66;2104031;28;19924;-49
2022/10/06 02:31:06;;;;;;;;;;;;;;;21.77;64.70;99742.25;2092997;28;20405;-52
2022/10/06 02:32:07;;;;;;;;;;;;;;;21.79;64.02;99751.00;2101441;28;20005;-57
2022/10/06 02:33:08;;;;;;;;;;;;;;;21.77;64.45;99743.09;2100495;28;19949;-55
2022/10/06 02:34:09;;;;;;;;;;;;;;;21.77;64.42;99740.41;2105802;27;19937;-48
2022/10/06 02:35:11;;;;;;;;;;;;;;;21.76;64.52;99741.44;2093462;28;19928;-51
2022/10/06 02:36:14;;;;;;;;;;;;;;;21.77;64.37;99742.25;2094150;28;19924;-52
2022/10/06 02:37:15;;;;;;;;;;;;;;;21.77;64.43;99742.25;2092378;28;20005;-53
2022/10/06 02:38:17;;;;;;;;;;;;;;;21.77;64.67;99739.56;2094403;28;20578;-52
2022/10/06 02:39:19;;;;;;;;;;;;;;;21.79;64.69;99740.22;2091957;28;19928;-51
2022/10/06 02:40:20;;;;;;;;;;;;;;;21.78;64.72;99743.91;2090140;28;19935;-49
2022/10/06 02:41:21;;;;;;;;;;;;;;;21.78;64.37;99742.06;2092346;28;19928;-53
2022/10/06 02:42:22;;;;;;;;;;;;;;;21.79;64.58;99740.22;2096916;28;20271;-55
2022/10/06 02:43:27;;;;;;;;;;;;;;;21.77;64.64;99743.09;2105759;28;20557;-55
2022/10/06 02:44:29;;;;;;;;;;;;;;;21.77;64.62;99743.09;2098392;28;19928;-54
2022/10/06 02:45:30;;;;;;;;;;;;;;;21.77;64.38;99753.06;2103780;28;19927;-53
2022/10/06 02:46:31;;;;;;;;;;;;;;;21.77;64.25;99744.97;2102896;28;19928;-53
2022/10/06 02:47:32;;;;;;;;;;;;;;;21.77;64.45;99747.66;2101997;28;20015;-52
2022/10/06 02:48:34;;;;;;;;;;;;;;;21.77;64.43;99747.66;2097950;28;20402;-54
2022/10/06 02:49:35;;;;;;;;;;;;;;;21.76;64.88;99746.84;2100733;28;19928;-51
2022/10/06 02:50:36;;;;;;;;;;;;;;;21.76;64.52;99743.31;2104805;28;19924;-54
2022/10/06 02:51:36;;;;;;;;;;;;;;;21.77;64.67;99747.66;2094987;28;20947;-51
2022/10/06 02:52:41;;;;;;;;;;;;;;;21.76;64.39;99741.44;2102294;28;19935;-49
2022/10/06 02:53:42;;;;;;;;;;;;;;;21.77;64.83;99748.50;2100634;28;19924;-49
2022/10/06 02:54:45;;;;;;;;;;;;;;;21.77;64.51;99748.50;2103735;28;19931;-51
2022/10/06 02:55:46;;;;;;;;;;;;;;;21.77;64.70;99753.91;2106673;28;20297;-48
2022/10/06 02:56:49;;;;;;;;;;;;;;;21.75;64.47;99745.16;2097497;28;19928;-48
2022/10/06 02:57:49;;;;;;;;;;;;;;;21.75;64.86;99747.03;2101898;28;19932;-54
2022/10/06 02:58:51;;;;;;;;;;;;;;;21.75;64.46;99744.31;2095610;28;20435;-52
2022/10/06 02:59:51;;;;;;;;;;;;;;;21.75;64.95;99745.16;2095786;28;20012;-54
2022/10/06 03:00:53;;;;;;;;;;;;;;;21.75;64.92;99749.72;2101515;28;20867;-50
2022/10/06 03:01:53;;;;;;;;;;;;;;;21.75;64.61;99745.16;2102722;28;19932;-54
2022/10/06 03:02:55;;;;;;;;;;;;;;;21.77;64.62;99753.06;2099782;28;19986;-54
2022/10/06 03:03:55;;;;;;;;;;;;;;;21.77;64.67;99750.38;2098588;28;20798;-53
2022/10/06 03:04:57;;;;;;;;;;;;;;;21.75;64.83;99750.56;2105726;28;19931;-50
2022/10/06 03:05:58;;;;;;;;;;;;;;;21.75;64.58;99752.41;2101737;28;19980;-53
2022/10/06 03:06:59;;;;;;;;;;;;;;;21.76;64.56;99746.84;2099591;28;19924;-55
2022/10/06 03:08:00;;;;;;;;;;;;;;;21.76;64.84;99746.00;2100984;28;19968;-53
2022/10/06 03:09:03;;;;;;;;;;;;;;;21.76;64.73;99746.00;2100704;28;19923;-51
2022/10/06 03:10:05;;;;;;;;;;;;;;;21.75;64.48;99749.72;2098903;28;19936;-53
2022/10/06 03:11:07;;;;;;;;;;;;;;;21.76;64.44;99746.00;2104498;28;20382;-54
2022/10/06 03:12:07;;;;;;;;;;;;;;;21.76;64.50;99752.25;2102259;28;19928;-54
2022/10/06 03:13:09;;;;;;;;;;;;;;;21.75;64.66;99744.31;2100874;28;19928;-53
2022/10/06 03:14:10;;;;;;;;;;;;;;;21.76;64.34;99746.84;2098622;28;19928;-53
2022/10/06 03:15:11;;;;;;;;;;;;;;;21.75;64.63;99744.31;2098032;28;20012;-55
2022/10/06 03:16:13;;;;;;;;;;;;;;;21.74;64.72;99740.78;2097569;28;19928;-48
2022/10/06 03:17:14;;;;;;;;;;;;;;;21.75;64.62;99744.31;2095976;28;20281;-53
2022/10/06 03:18:15;;;;;;;;;;;;;;;21.74;64.57;99742.66;2102439;28;20385;-54
2022/10/06 03:19:16;;;;;;;;;;;;;;;21.74;64.84;99748.06;2097705;28;19924;-56
2022/10/06 03:20:16;;;;;;;;;;;;;;;;;;2093117;28;19932;-49
2022/10/06 03:21:18;;;;;;;;;;;;;;;;;;2083024;28;20358;-53
2022/10/06 03:22:18;;;;;;;;;;;;;;;21.74;64.81;99737.25;2095663;28;20530;-51
2022/10/06 03:23:20;;;;;;;;;;;;;;;21.73;64.87;99736.44;2093636;28;19924;-52
2022/10/06 03:24:20;;;;;;;;;;;;;;;21.74;64.57;99742.66;2095631;27;19992;-53
2022/10/06 03:25:23;;;;;;;;;;;;;;;21.74;64.51;99742.66;2093674;27;19970;-54
2022/10/06 03:26:26;;;;;;;;;;;;;;;21.75;64.60;99738.91;2091822;27;20222;-51
2022/10/06 03:27:27;;;;;;;;;;;;;;;21.74;64.69;99739.97;2092458;27;20047;-52
2022/10/06 03:28:29;;;;;;;;;;;;;;;;;;2095942;28;20467;-49
2022/10/06 03:29:30;;;;;;;;;;;;;;;21.73;64.57;99740.97;2089397;28;20616;-50
2022/10/06 03:30:31;;;;;;;;;;;;;;;21.72;64.64;99739.31;2099490;28;19928;-51
2022/10/06 03:31:32;;;;;;;;;;;;;;;21.73;64.68;99741.84;2092480;28;19924;-52
2022/10/06 03:32:33;;;;;;;;;;;;;;;21.74;64.74;99742.66;2092813;28;19928;-52
2022/10/06 03:33:34;;;;;;;;;;;;;;;;;;2100205;27;19953;-51
2022/10/06 03:34:36;;;;;;;;;;;;;;;;;;2094356;28;19997;-49
2022/10/06 03:35:37;;;;;;;;;;;;;;;21.74;64.74;99748.06;2105305;28;19928;-52
2022/10/06 03:36:39;;;;;;;;;;;;;;;21.71;64.67;99733.09;2103531;28;20043;-50
2022/10/06 03:37:39;;;;;;;;;;;;;;;21.74;64.63;99743.50;2100519;27;19928;-50
2022/10/06 03:38:41;;;;;;;;;;;;;;;21.72;64.74;99739.31;2102049;28;20320;-50
2022/10/06 03:39:42;;;;;;;;;;;;;;;;;;2103308;28;19932;-51
2022/10/06 03:40:43;;;;;;;;;;;;;;;;;;2097567;28;20974;-48
2022/10/06 03:41:45;;;;;;;;;;;;;;;21.71;64.94;99743.06;2103414;28;19931;-49
2022/10/06 03:42:46;;;;;;;;;;;;;;;21.72;65.00;99739.31;2103426;28;19988;-48
2022/10/06 03:43:48;;;;;;;;;;;;;;;21.71;64.77;99740.38;2108432;28;19928;-48
2022/10/06 03:44:49;;;;;;;;;;;;;;;21.72;64.93;99747.41;2098323;27;19938;-50
2022/10/06 03:45:50;;;;;;;;;;;;;;;;;;2103734;28;19935;-51
2022/10/06 03:46:51;;;;;;;;;;;;;;;21.72;64.85;99739.31;2099306;28;20022;-51
2022/10/06 03:47:53;;;;;;;;;;;;;;;21.71;64.98;99741.19;2101050;28;20287;-50
2022/10/06 03:48:56;;;;;;;;;;;;;;;21.71;64.68;99733.09;2103439;28;19935;-49
2022/10/06 03:49:56;;;;;;;;;;;;;;;21.73;64.94;99738.28;2103595;28;19989;-51
2022/10/06 03:50:58;;;;;;;;;;;;;;;21.71;64.69;99734.97;2103469;27;19924;-51
2022/10/06 03:51:59;;;;;;;;;;;;;;;21.70;64.90;99734.09;2105988;27;19924;-52
2022/10/06 03:53:00;;;;;;;;;;;;;;;21.70;64.78;99731.41;2105271;28;19981;-51
2022/10/06 03:54:00;;;;;;;;;;;;;;;;;;2104141;28;19992;-49
2022/10/06 03:55:02;;;;;;;;;;;;;;;21.71;64.84;99729.56;2105251;28;19940;-50
2022/10/06 03:56:04;;;;;;;;;;;;;;;21.71;64.67;99734.97;2097381;28;19924;-51
2022/10/06 03:57:06;;;;;;;;;;;;;;;21.70;64.93;99739.50;2100897;28;19932;-52
2022/10/06 03:58:07;;;;;;;;;;;;;;;21.70;64.92;99735.97;2102766;27;20476;-50
2022/10/06 03:59:10;;;;;;;;;;;;;;;21.70;64.70;99738.69;2105431;28;19936;-51
2022/10/06 04:00:11;;;;;;;;;;;;;;;21.70;64.80;99731.41;2087511;28;19974;-50
2022/10/06 04:01:13;;;;;;;;;;;;;;;21.70;64.95;99731.41;2098730;28;19925;-48
2022/10/06 04:02:15;;;;;;;;;;;;;;;21.72;64.60;99739.31;2103073;28;19936;-49
2022/10/06 04:03:18;;;;;;;;;;;;;;;21.71;64.51;99738.50;2103982;28;19924;-49
2022/10/06 04:04:19;;;;;;;;;;;;;;;21.71;64.65;99737.66;2105801;28;19924;-48
2022/10/06 04:05:20;;;;;;;;;;;;;;;21.69;64.84;99737.00;2105832;27;19967;-51
2022/10/06 04:06:21;;;;;;;;;;;;;;;21.69;64.63;99737.84;2094650;28;20102;-50
2022/10/06 04:07:21;;;;;;;;;;;;;;;21.69;64.97;99739.72;2103443;28;20235;-52
2022/10/06 04:08:23;;;;;;;;;;;;;;;21.67;64.91;99739.91;2106835;28;19927;-49
2022/10/06 04:09:23;;;;;;;;;;;;;;;21.68;64.78;99743.47;2098959;27;20469;-49
2022/10/06 04:10:25;;;;;;;;;;;;;;;21.70;64.92;99744.06;2101675;28;19931;-52
2022/10/06 04:11:27;;;;;;;;;;;;;;;21.70;65.08;99744.06;2102913;28;19932;-48
2022/10/06 04:12:29;;;;;;;;;;;;;;;21.69;64.83;99739.72;2102241;28;19981;-49
2022/10/06 04:13:30;;;;;;;;;;;;;;;21.71;64.47;99745.75;2102793;28;20671;-53
2022/10/06 04:14:32;;;;;;;;;;;;;;;21.70;64.68;99744.06;2105444;28;19927;-50
2022/10/06 04:15:32;;;;;;;;;;;;;;;21.68;64.67;99744.28;2093269;28;20030;-48
2022/10/06 04:16:35;;;;;;;;;;;;;;;21.69;64.84;99753.22;2089391;28;19939;-53
2022/10/06 04:17:35;;;;;;;;;;;;;;;21.72;65.04;99747.41;2100430;28;19928;-49
2022/10/06 04:18:37;;;;;;;;;;;;;;;21.71;64.94;99748.47;2093976;28;20002;-50
2022/10/06 04:19:37;;;;;;;;;;;;;;;21.70;64.72;99752.19;2096197;27;19933;-50
2022/10/06 04:20:39;;;;;;;;;;;;;;;21.69;65.04;99755.91;2092369;28;19939;-49
2022/10/06 04:21:40;;;;;;;;;;;;;;;21.67;64.88;99748.00;2088242;28;20579;-53
2022/10/06 04:22:41;;;;;;;;;;;;;;;21.68;64.66;99748.84;2092477;28;20583;-49
2022/10/06 04:23:42;;;;;;;;;;;;;;;21.68;64.61;99748.84;2101900;27;20011;-51
2022/10/06 04:24:43;;;;;;;;;;;;;;;21.66;64.87;99740.13;2100347;28;19934;-49
2022/10/06 04:25:44;;;;;;;;;;;;;;;21.66;64.47;99743.63;2107941;28;20979;-50
2022/10/06 04:26:47;;;;;;;;;;;;;;;21.68;64.63;99748.84;2097130;28;19989;-51
2022/10/06 04:27:49;;;;;;;;;;;;;;;21.67;64.32;99747.16;2103346;28;19971;-49
2022/10/06 04:28:51;;;;;;;;;;;;;;;21.65;64.32;99750.09;2103186;28;20386;-52
2022/10/06 04:29:51;;;;;;;;;;;;;;;21.64;64.55;99748.41;2100907;28;19931;-49
2022/10/06 04:30:56;;;;;;;;;;;;;;;21.63;64.36;99752.97;2096589;28;20358;-51
2022/10/06 04:31:58;;;;;;;;;;;;;;;21.66;64.78;99749.03;2098145;28;19928;-52
2022/10/06 04:32:58;;;;;;;;;;;;;;;21.72;64.42;99747.41;2095277;27;19928;-50
2022/10/06 04:34:00;;;;;;;;;;;;;;;21.79;64.56;99751.00;2098206;28;20010;-52
2022/10/06 04:35:01;;;;;;;;;;;;;;;21.81;64.23;99741.69;2102663;28;19924;-48
2022/10/06 04:36:03;;;;;;;;;;;;;;;21.82;64.39;99750.63;2103526;28;20503;-47
2022/10/06 04:37:04;;;;;;;;;;;;;;;21.81;64.72;99748.94;2105328;28;19939;-48
2022/10/06 04:38:05;;;;;;;;;;;;;;;21.81;64.83;99743.53;2097486;28;20289;-52
2022/10/06 04:39:07;;;;;;;;;;;;;;;21.79;65.11;99740.22;2094713;28;19935;-52
2022/10/06 04:40:09;;;;;;;;;;;;;;;21.76;64.96;99736.03;2094353;28;20429;-51
2022/10/06 04:41:10;;;;;;;;;;;;;;;21.73;64.76;99740.97;2090092;28;19928;-49
2022/10/06 04:42:12;;;;;;;;;;;;;;;;;;2093330;28;20130;-48
2022/10/06 04:43:14;;;;;;;;;;;;;;;21.70;64.92;99757.56;2086163;28;20028;-51
2022/10/06 04:44:15;;;;;;;;;;;;;;;21.69;64.87;99739.72;2088094;28;19933;-48
2022/10/06 04:45:16;;;;;;;;;;;;;;;21.67;64.96;99749.88;2092119;28;19933;-48
2022/10/06 04:46:18;;;;;;;;;;;;;;;21.64;64.88;99754.63;2092829;28;19928;-50
2022/10/06 04:47:18;;;;;;;;;;;;;;;21.64;64.72;99753.78;2094735;28;20048;-50
2022/10/06 04:48:20;;;;;;;;;;;;;;;21.62;65.01;99751.31;2094229;27;20252;-50
2022/10/06 04:49:20;;;;;;;;;;;;;;;21.63;64.64;99752.97;2090816;28;19940;-48
2022/10/06 04:50:22;;;;;;;;;;;;;;;21.61;64.68;99755.03;2096259;28;20390;-51
2022/10/06 04:51:23;;;;;;;;;;;;;;;21.60;64.73;99756.06;2101215;28;19977;-48
2022/10/06 04:52:25;;;;;;;;;;;;;;;21.61;64.55;99755.03;2105635;28;19994;-51
2022/10/06 04:53:26;;;;;;;;;;;;;;;21.60;64.60;99747.97;2103850;28;19931;-48
2022/10/06 04:54:28;;;;;;;;;;;;;;;21.60;64.63;99757.94;2099967;28;19950;-48
2022/10/06 04:55:28;;;;;;;;;;;;;;;21.60;64.27;99760.63;2099612;28;19939;-50
2022/10/06 04:56:30;;;;;;;;;;;;;;;21.59;64.29;99759.81;2101128;27;20400;-50
2022/10/06 04:57:31;;;;;;;;;;;;;;;21.59;64.56;99759.81;2096905;28;20000;-48
2022/10/06 04:58:34;;;;;;;;;;;;;;;21.58;64.45;99760.81;2093294;28;19974;-48
2022/10/06 05:00:55;;;;;;;;;;;;;;;21.59;64.32;99757.09;2101211;28;19927;-52
2022/10/06 05:01:56;;;;;;;;;;;;;;;21.57;64.58;99759.16;2100041;28;19927;-50
2022/10/06 05:02:58;;;;;;;;;;;;;;;21.56;64.31;99768.28;2097469;28;19967;-52
2022/10/06 05:03:59;;;;;;;;;;;;;;;21.57;64.10;99759.16;2082735;28;19929;-50
2022/10/06 05:05:01;;;;;;;;;;;;;;;21.57;64.22;99759.16;2084879;28;20392;-54
2022/10/06 05:06:03;;;;;;;;;;;;;;;21.57;64.39;99764.56;2090608;28;20493;-49
2022/10/06 05:07:05;;;;;;;;;;;;;;;21.56;64.13;99757.50;2091091;28;20456;-49
2022/10/06 05:08:05;;;;;;;;;;;;;;;21.56;64.07;99756.63;2087115;28;20379;-55
2022/10/06 05:09:08;;;;;;;;;;;;;;;21.57;64.21;99766.44;2093269;28;19933;-52
2022/10/06 05:10:08;;;;;;;;;;;;;;;21.55;64.05;99765.78;2087801;28;20477;-54
2022/10/06 05:11:11;;;;;;;;;;;;;;;21.56;63.94;99765.59;2101668;28;19924;-53
2022/10/06 05:12:12;;;;;;;;;;;;;;;21.58;63.92;99763.50;2094353;28;20017;-54
2022/10/06 05:13:14;;;;;;;;;;;;;;;21.59;63.46;99762.50;2097239;28;24380;-57
2022/10/06 05:14:16;;;;;;;;;;;;;;;21.58;63.65;99768.91;2096952;28;19939;-58
2022/10/06 05:15:17;;;;;;;;;;;;;;;21.59;63.52;99767.91;2093816;28;19924;-57
2022/10/06 05:16:18;;;;;;;;;;;;;;;21.60;63.74;99769.56;2091472;28;19928;-56
2022/10/06 05:17:19;;;;;;;;;;;;;;;21.60;63.47;99774.97;2095937;27;20741;-53
2022/10/06 05:18:20;;;;;;;;;;;;;;;21.60;63.31;99766.84;2103135;28;19928;-52
2022/10/06 05:19:21;;;;;;;;;;;;;;;21.60;63.45;99769.56;2099350;28;19924;-56
2022/10/06 05:20:22;;;;;;;;;;;;;;;21.59;63.34;99765.19;2098025;27;19965;-55
2022/10/06 05:21:24;;;;;;;;;;;;;;;21.59;63.24;99769.75;2091475;28;20685;-54
2022/10/06 05:22:26;;;;;;;;;;;;;;;21.57;63.23;99767.25;2095860;27;19924;-50
2022/10/06 05:23:27;;;;;;;;;;;;;;;21.57;63.08;99767.25;2093020;27;19928;-57
2022/10/06 05:24:29;;;;;;;;;;;;;;;21.58;62.97;99762.69;2083498;28;19971;-53